Time;durP1;ratioP1;P1;durP2;ratioP2;P2;SDS_P1;SDS_P2;PMS_P1;PMS_P2;Temp;Humidity;BMP_temperature;BMP_pressure;BME280_temperature;BME280_humidity;BME280_pressure;Samples;Min_cycle;Max_cycle;Signal;HPM_P1;HPM_P2
2022/10/06 00:01:53;;;;;;;2.05;1.70;;;;;;;-146.61;100.00;58846.50;5024757;28;20034;-79
2022/10/06 00:04:19;;;;;;;3.13;1.80;;;;;;;-146.61;100.00;58846.50;5027750;28;20063;-78
2022/10/06 00:06:46;;;;;;;2.50;1.58;;;;;;;-146.61;100.00;58846.50;5023211;28;20745;-76
2022/10/06 00:09:12;;;;;;;1.90;1.08;;;;;;;-146.61;100.00;58846.50;5026101;28;20151;-75
2022/10/06 00:11:39;;;;;;;2.83;1.48;;;;;;;-146.61;100.00;58846.50;5028196;28;20120;-76
2022/10/06 00:14:05;;;;;;;2.08;1.60;;;;;;;-146.61;100.00;58846.50;5029912;28;20088;-77
2022/10/06 00:16:31;;;;;;;2.65;1.60;;;;;;;-146.61;100.00;58846.50;5031974;28;20447;-77
2022/10/06 00:18:58;;;;;;;2.70;1.60;;;;;;;-146.61;100.00;58846.50;5026635;28;20065;-78
2022/10/06 00:21:24;;;;;;;1.55;0.90;;;;;;;-146.61;100.00;58846.50;5020355;28;20061;-77
2022/10/06 00:23:51;;;;;;;1.02;0.43;;;;;;;-146.61;100.00;58846.50;5028515;28;20038;-78
2022/10/06 00:26:17;;;;;;;0.43;0.22;;;;;;;-146.61;100.00;58846.50;5027907;28;20061;-75
2022/10/06 00:28:46;;;;;;;3.47;0.30;;;;;;;-146.61;100.00;58846.50;5027034;28;20049;-78
2022/10/06 00:31:13;;;;;;;0.10;0.10;;;;;;;-146.61;100.00;58846.50;5027615;28;21303;-77
2022/10/06 00:33:39;;;;;;;1.38;0.10;;;;;;;-146.61;100.00;58846.50;5029807;28;20037;-75
2022/10/06 00:36:06;;;;;;;0.80;0.10;;;;;;;-146.61;100.00;58846.50;5025854;28;20037;-76
2022/10/06 00:38:32;;;;;;;0.35;0.00;;;;;;;-146.61;100.00;58846.50;5022036;28;20072;-75
2022/10/06 00:40:59;;;;;;;0.85;0.20;;;;;;;-146.61;100.00;58846.50;5017350;28;20357;-78
2022/10/06 00:43:57;;;;;;;2.28;0.20;;;;;;;-146.61;100.00;58846.50;5025261;28;20048;-76
2022/10/06 00:46:38;;;;;;;0.13;0.10;;;;;;;-146.61;100.00;58846.50;5026165;28;20736;-77
2022/10/06 00:49:30;;;;;;;1.17;0.22;;;;;;;-146.61;100.00;58846.50;5019531;28;20125;-77
2022/10/06 00:52:05;;;;;;;0.45;0.20;;;;;;;-146.61;100.00;58846.50;5018231;28;20356;-78
2022/10/06 00:54:33;;;;;;;0.50;0.30;;;;;;;-146.61;100.00;58846.50;5019826;28;20152;-81
2022/10/06 00:56:59;;;;;;;1.17;0.22;;;;;;;-146.61;100.00;58846.50;5026099;28;20137;-81
2022/10/06 00:59:26;;;;;;;1.48;0.52;;;;;;;-146.61;100.00;58846.50;5027718;28;20466;-78
2022/10/06 01:02:06;;;;;;;1.70;0.38;;;;;;;-146.61;100.00;58846.50;5036530;28;20861;-76
2022/10/06 01:04:35;;;;;;;0.55;0.30;;;;;;;-146.61;100.00;58846.50;5020711;28;20112;-76
2022/10/06 01:07:02;;;;;;;0.30;0.20;;;;;;;-146.61;100.00;58846.50;5026323;28;20052;-76
2022/10/06 01:09:31;;;;;;;0.82;0.20;;;;;;;-146.61;100.00;58846.50;5026871;28;20044;-77
2022/10/06 01:12:01;;;;;;;1.13;0.17;;;;;;;-146.61;100.00;58846.50;5026379;28;20040;-77
2022/10/06 01:14:29;;;;;;;0.20;0.20;;;;;;;-146.61;100.00;58846.50;5031858;28;20121;-77
2022/10/06 01:17:04;;;;;;;3.85;0.22;;;;;;;-146.61;100.00;58846.50;5027197;28;20129;-78
2022/10/06 01:19:51;;;;;;;0.82;0.20;;;;;;;-146.61;100.00;58846.50;5028459;28;20091;-79
2022/10/06 01:22:45;;;;;;;0.75;0.10;;;;;;;-146.61;100.00;58846.50;5025786;28;20053;-76
2022/10/06 01:25:15;;;;;;;0.95;0.15;;;;;;;-146.61;100.00;58846.50;5024553;28;20056;-76
2022/10/06 01:27:45;;;;;;;0.63;0.20;;;;;;;-146.61;100.00;58846.50;5031356;28;20052;-76
2022/10/06 01:30:16;;;;;;;0.10;0.10;;;;;;;-146.61;100.00;58846.50;5024415;28;20046;-76
2022/10/06 01:32:43;;;;;;;1.23;0.10;;;;;;;-146.61;100.00;58846.50;5025981;28;20045;-79
2022/10/06 01:35:10;;;;;;;3.25;0.30;;;;;;;-146.61;100.00;58846.50;5023053;28;20048;-76
2022/10/06 01:37:36;;;;;;;2.92;0.75;;;;;;;-146.61;100.00;58846.50;5038771;28;20046;-79
2022/10/06 01:40:03;;;;;;;0.20;0.10;;;;;;;-146.61;100.00;58846.50;5026309;28;20049;-77
2022/10/06 01:42:31;;;;;;;1.55;0.10;;;;;;;-146.61;100.00;58846.50;5032708;28;20041;-77
2022/10/06 01:44:58;;;;;;;0.65;0.20;;;;;;;-146.61;100.00;58846.50;5030769;28;20080;-76
2022/10/06 01:47:24;;;;;;;1.65;0.30;;;;;;;-146.61;100.00;58846.50;5029646;28;20052;-77
2022/10/06 01:49:51;;;;;;;0.45;0.28;;;;;;;-146.61;100.00;58846.50;5019252;28;20045;-79
2022/10/06 01:52:18;;;;;;;0.10;0.10;;;;;;;-146.61;100.00;58846.50;5031001;28;20045;-77
2022/10/06 01:54:44;;;;;;;2.35;0.17;;;;;;;-146.61;100.00;58846.50;5026864;28;20054;-78
2022/10/06 01:57:11;;;;;;;0.22;0.22;;;;;;;-146.61;100.00;58846.50;5023481;28;20045;-76
2022/10/06 01:59:37;;;;;;;0.65;0.10;;;;;;;-146.61;100.00;58846.50;5028782;28;20069;-75
2022/10/06 02:02:04;;;;;;;0.22;0.10;;;;;;;-146.61;100.00;58846.50;5026124;28;20049;-77
2022/10/06 02:04:31;;;;;;;2.65;0.40;;;;;;;-146.61;100.00;58846.50;5027990;28;20037;-79
2022/10/06 02:06:57;;;;;;;1.00;0.35;;;;;;;-146.61;100.00;58846.50;5027555;28;20045;-79
2022/10/06 02:09:24;;;;;;;1.40;0.47;;;;;;;-146.61;100.00;58846.50;5023816;28;20045;-79
2022/10/06 02:11:50;;;;;;;0.98;0.63;;;;;;;-146.61;100.00;58846.50;5021234;28;20045;-76
2022/10/06 02:14:17;;;;;;;1.23;0.52;;;;;;;-146.61;100.00;58846.50;5022304;28;20056;-82
2022/10/06 02:16:44;;;;;;;0.93;0.08;;;;;;;-146.61;100.00;58846.50;5028735;28;20045;-78
2022/10/06 02:19:11;;;;;;;0.90;0.10;;;;;;;-146.61;100.00;58846.50;5025660;28;20053;-75
2022/10/06 02:21:37;;;;;;;0.30;0.20;;;;;;;-146.61;100.00;58846.50;5021621;28;20037;-78
2022/10/06 02:24:04;;;;;;;0.10;0.10;;;;;;;-146.61;100.00;58846.50;5026086;28;20427;-75
2022/10/06 02:26:30;;;;;;;3.63;0.95;;;;;;;-146.61;100.00;58846.50;5020623;28;20091;-78
2022/10/06 02:28:57;;;;;;;0.52;0.10;;;;;;;-146.61;100.00;58846.50;5019731;28;20045;-80
2022/10/06 02:31:23;;;;;;;0.60;0.10;;;;;;;-146.61;100.00;58846.50;5021439;28;20053;-78
2022/10/06 02:33:50;;;;;;;0.52;0.13;;;;;;;-146.61;100.00;58846.50;5022885;28;20073;-75
2022/10/06 02:36:17;;;;;;;2.25;0.30;;;;;;;-146.61;100.00;58846.50;5029152;28;20049;-76
2022/10/06 02:38:44;;;;;;;2.17;0.63;;;;;;;-146.61;100.00;58846.50;5023817;28;20400;-76
2022/10/06 02:41:11;;;;;;;0.38;0.20;;;;;;;-146.61;100.00;58846.50;5026338;28;20046;-76
2022/10/06 02:43:38;;;;;;;0.98;0.20;;;;;;;-146.61;100.00;58846.50;5025945;28;20045;-76
2022/10/06 02:46:11;;;;;;;1.67;0.20;;;;;;;-146.61;100.00;58846.50;5025443;28;20211;-78
2022/10/06 02:48:38;;;;;;;1.83;0.40;;;;;;;-146.61;100.00;58846.50;5028832;28;20139;-77
2022/10/06 02:51:15;;;;;;;2.67;0.40;;;;;;;-146.61;100.00;58846.50;5024219;28;20069;-77
2022/10/06 02:53:43;;;;;;;2.95;0.95;;;;;;;-146.61;100.00;58846.50;5030787;28;20392;-77
2022/10/06 02:56:14;;;;;;;1.23;0.50;;;;;;;-146.61;100.00;58846.50;5034031;28;20038;-76
2022/10/06 02:58:41;;;;;;;6.18;0.50;;;;;;;-146.61;100.00;58846.50;5032296;28;20053;-76
2022/10/06 03:01:13;;;;;;;1.98;0.80;;;;;;;-146.61;100.00;58846.50;5031917;28;20033;-76
2022/10/06 03:03:52;;;;;;;;;;;;;;;-146.61;100.00;58846.50;5030410;28;20049;-79
2022/10/06 03:06:24;;;;;;;3.10;0.47;;;;;;;-146.61;100.00;58846.50;5030490;28;19921;-75
2022/10/06 03:08:52;;;;;;;2.67;0.70;;;;;;;-146.61;100.00;58846.50;5032073;28;20041;-76
2022/10/06 03:11:21;;;;;;;1.40;0.70;;;;;;;-146.61;100.00;58846.50;5020381;28;20049;-77
2022/10/06 03:13:50;;;;;;;5.07;0.85;;;;;;;-146.61;100.00;58846.50;5023014;28;20045;-79
2022/10/06 03:16:25;;;;;;;2.97;0.85;;;;;;;-146.61;100.00;58846.50;5030367;28;20132;-74
2022/10/06 03:18:53;;;;;;;2.83;0.52;;;;;;;-146.61;100.00;58846.50;5025706;28;20120;-80
2022/10/06 03:21:23;;;;;;;1.67;0.55;;;;;;;-146.61;100.00;58846.50;5021601;28;20045;-78
2022/10/06 03:23:52;;;;;;;5.05;0.68;;;;;;;-146.61;100.00;58846.50;5023124;28;20848;-75
2022/10/06 03:26:21;;;;;;;2.08;1.10;;;;;;;-146.61;100.00;58846.50;5026599;28;20190;-76
2022/10/06 03:28:48;;;;;;;4.10;0.60;;;;;;;-146.61;100.00;58846.50;5022968;28;20042;-78
2022/10/06 03:31:16;;;;;;;5.95;1.10;;;;;;;-146.61;100.00;58846.50;5030362;28;20464;-77
2022/10/06 03:33:43;;;;;;;3.67;1.08;;;;;;;-146.61;100.00;58846.50;5030438;28;20040;-78
2022/10/06 03:36:18;;;;;;;5.90;1.15;;;;;;;-146.61;100.00;58846.50;5025781;28;20047;-78
2022/10/06 03:38:45;;;;;;;3.88;0.75;;;;;;;-146.61;100.00;58846.50;5020794;28;20052;-76
2022/10/06 03:41:20;;;;;;;4.85;1.00;;;;;;;-146.61;100.00;58846.50;5027438;28;20063;-78
2022/10/06 03:43:49;;;;;;;2.20;1.55;;;;;;;-146.61;100.00;58846.50;5030354;28;20057;-75
2022/10/06 03:46:19;;;;;;;2.85;1.05;;;;;;;-146.61;100.00;58846.50;5023774;28;20046;-78
2022/10/06 03:48:46;;;;;;;5.20;0.95;;;;;;;-146.61;100.00;58846.50;5028009;28;20033;-79
2022/10/06 03:51:16;;;;;;;3.03;0.70;;;;;;;-146.61;100.00;58846.50;5024224;28;20135;-82
2022/10/06 03:53:47;;;;;;;3.75;0.82;;;;;;;-146.61;100.00;58846.50;5017492;28;20696;-78
2022/10/06 03:56:16;;;;;;;3.22;0.52;;;;;;;-146.61;100.00;58846.50;5020651;28;20053;-80
2022/10/06 03:58:45;;;;;;;5.40;1.95;;;;;;;-146.61;100.00;58846.50;5024416;28;20037;-77
2022/10/06 04:01:16;;;;;;;5.25;0.88;;;;;;;-146.61;100.00;58846.50;5024967;28;20041;-79
2022/10/06 04:03:43;;;;;;;3.53;0.98;;;;;;;-146.61;100.00;58846.50;5029189;28;20045;-76
2022/10/06 04:06:13;;;;;;;4.43;0.90;;;;;;;-146.61;100.00;58846.50;5022774;28;20045;-79
2022/10/06 04:08:40;;;;;;;10.98;1.02;;;;;;;-146.61;100.00;58846.50;5023168;28;20045;-82
2022/10/06 04:11:16;;;;;;;6.57;1.17;;;;;;;-146.61;100.00;58846.50;5020450;28;20048;-78
2022/10/06 04:13:44;;;;;;;5.93;1.27;;;;;;;-146.61;100.00;58846.50;5021043;28;20033;-77
2022/10/06 04:16:15;;;;;;;3.30;0.88;;;;;;;-146.61;100.00;58846.50;5028225;28;20085;-79
2022/10/06 04:18:43;;;;;;;9.30;1.73;;;;;;;-146.61;100.00;58846.50;5019172;28;20041;-79
2022/10/06 04:21:10;;;;;;;8.30;1.48;;;;;;;-146.61;100.00;58846.50;5020454;28;20037;-79
2022/10/06 04:23:37;;;;;;;5.53;0.90;;;;;;;-146.61;100.00;58846.50;5022607;28;20765;-77
2022/10/06 04:26:08;;;;;;;6.03;0.95;;;;;;;-146.61;100.00;58846.50;5042003;28;20068;-78
2022/10/06 04:28:38;;;;;;;3.90;1.00;;;;;;;-146.61;100.00;58846.50;5024940;28;20049;-77
2022/10/06 04:31:11;;;;;;;6.38;1.27;;;;;;;-146.61;100.00;58846.50;5023932;28;20048;-85
2022/10/06 04:33:38;;;;;;;7.20;1.00;;;;;;;-146.61;100.00;58846.50;5025225;28;20130;-78
2022/10/06 04:36:07;;;;;;;7.55;1.10;;;;;;;-146.61;100.00;58846.50;5025600;28;20578;-80
2022/10/06 04:38:35;;;;;;;2.63;1.25;;;;;;;-146.61;100.00;58846.50;5025196;28;20658;-78
2022/10/06 04:41:14;;;;;;;4.88;1.08;;;;;;;-146.61;100.00;58846.50;5022234;28;20033;-82
2022/10/06 04:43:40;;;;;;;3.22;1.00;;;;;;;-146.61;100.00;58846.50;5027775;28;20045;-76
2022/10/06 04:46:09;;;;;;;7.78;1.30;;;;;;;-146.61;100.00;58846.50;5027733;28;20140;-78
2022/10/06 04:48:35;;;;;;;3.38;1.88;;;;;;;-146.61;100.00;58846.50;5027909;28;20046;-77
2022/10/06 04:51:11;;;;;;;7.78;1.42;;;;;;;-146.61;100.00;58846.50;5024973;28;20041;-79
2022/10/06 04:53:37;;;;;;;7.80;1.17;;;;;;;-146.61;100.00;58846.50;5022681;28;20130;-74
2022/10/06 04:56:11;;;;;;;5.03;1.38;;;;;;;-146.61;100.00;58846.50;5022779;28;20045;-83
2022/10/06 04:58:41;;;;;;;5.90;1.05;;;;;;;-146.61;100.00;58846.50;5026631;28;20071;-76
2022/10/06 05:01:25;;;;;;;9.55;1.55;;;;;;;-146.61;100.00;58846.50;5026282;28;20041;-78
2022/10/06 05:03:55;;;;;;;8.13;1.10;;;;;;;-146.61;100.00;58846.50;5027904;28;20510;-79
2022/10/06 05:06:22;;;;;;;5.35;1.08;;;;;;;-146.61;100.00;58846.50;5026517;28;20053;-76
2022/10/06 05:08:54;;;;;;;3.30;1.52;;;;;;;-146.61;100.00;58846.50;5027675;28;20049;-76
2022/10/06 05:11:21;;;;;;;6.68;1.10;;;;;;;-146.61;100.00;58846.50;5020942;28;20041;-76
2022/10/06 05:13:49;;;;;;;4.72;1.52;;;;;;;-146.61;100.00;58846.50;5028659;28;20624;-76
2022/10/06 05:16:17;;;;;;;12.25;1.25;;;;;;;-146.61;100.00;58846.50;5022005;28;20049;-75
2022/10/06 05:18:44;;;;;;;7.90;1.08;;;;;;;-146.61;100.00;58846.50;5028033;28;20041;-75
2022/10/06 05:21:16;;;;;;;9.45;1.27;;;;;;;-146.61;100.00;58846.50;5028286;28;20357;-76
2022/10/06 05:23:43;;;;;;;8.05;1.20;;;;;;;-146.61;100.00;58846.50;5023546;28;20075;-76
2022/10/06 05:26:15;;;;;;;11.23;1.90;;;;;;;-146.61;100.00;58846.50;5027994;28;20052;-79
2022/10/06 05:28:42;;;;;;;8.95;1.70;;;;;;;-146.61;100.00;58846.50;5027042;28;20469;-78
2022/10/06 05:31:28;;;;;;;9.82;1.85;;;;;;;-146.61;100.00;58846.50;5025797;28;20143;-76
2022/10/06 05:33:56;;;;;;;5.50;1.05;;;;;;;-146.61;100.00;58846.50;5019644;28;20037;-75
2022/10/06 05:36:25;;;;;;;6.57;1.63;;;;;;;-146.61;100.00;58846.50;5026217;28;20056;-77
2022/10/06 05:38:52;;;;;;;8.48;0.93;;;;;;;-146.61;100.00;58846.50;5026311;28;20048;-79
2022/10/06 05:41:21;;;;;;;2.65;1.33;;;;;;;-146.61;100.00;58846.50;5028831;28;20159;-77
2022/10/06 05:43:48;;;;;;;5.53;1.08;;;;;;;-146.61;100.00;58846.50;5028299;28;20049;-80
2022/10/06 05:46:19;;;;;;;7.05;1.45;;;;;;;-146.61;100.00;58846.50;5027043;28;20452;-77
2022/10/06 05:48:50;;;;;;;8.65;0.93;;;;;;;-146.61;100.00;58846.50;5025660;28;20526;-78
2022/10/06 05:51:18;;;;;;;7.40;0.90;;;;;;;-146.61;100.00;58846.50;5023226;28;20099;-78
2022/10/06 05:53:45;;;;;;;5.65;1.35;;;;;;;-146.61;100.00;58846.50;5021178;28;20038;-77
2022/10/06 05:56:16;;;;;;;5.35;1.67;;;;;;;-146.61;100.00;58846.50;5019370;28;20092;-82
2022/10/06 05:58:44;;;;;;;12.38;1.83;;;;;;;-146.61;100.00;58846.50;5025623;28;20037;-78
2022/10/06 06:01:16;;;;;;;3.10;0.98;;;;;;;-146.61;100.00;58846.50;5025573;28;20048;-77
2022/10/06 06:03:47;;;;;;;11.38;1.77;;;;;;;-146.61;100.00;58846.50;5028472;28;20473;-78
2022/10/06 06:06:23;;;;;;;9.35;1.48;;;;;;;-146.61;100.00;58846.50;5033304;28;20036;-76
2022/10/06 06:08:55;;;;;;;9.95;1.42;;;;;;;-146.61;100.00;58846.50;5033041;28;20037;-75
2022/10/06 06:11:25;;;;;;;7.25;1.70;;;;;;;-146.61;100.00;58846.50;5028636;28;20034;-80
2022/10/06 06:14:13;;;;;;;10.15;1.30;;;;;;;-146.61;100.00;58846.50;5030684;28;20472;-80
2022/10/06 06:16:40;;;;;;;6.55;1.52;;;;;;;-146.61;100.00;58846.50;5028725;28;20774;-80
2022/10/06 06:19:08;;;;;;;4.22;1.48;;;;;;;-146.61;100.00;58846.50;5026217;28;20057;-79
2022/10/06 06:21:35;;;;;;;10.02;1.83;;;;;;;-146.61;100.00;58846.50;5015442;28;20048;-77
2022/10/06 06:24:02;;;;;;;6.40;1.38;;;;;;;-146.61;100.00;58846.50;5020588;28;20033;-80
2022/10/06 06:26:31;;;;;;;6.28;1.20;;;;;;;-146.61;100.00;58846.50;5030584;28;20049;-77
2022/10/06 06:29:02;;;;;;;6.78;1.55;;;;;;;-146.61;100.00;58846.50;5032305;28;20064;-80
2022/10/06 06:31:42;;;;;;;7.03;1.50;;;;;;;-146.61;100.00;58846.50;5027051;28;20121;-79
2022/10/06 06:34:10;;;;;;;5.70;1.40;;;;;;;-146.61;100.00;58846.50;5027860;28;20122;-78
2022/10/06 06:36:40;;;;;;;6.90;1.23;;;;;;;-146.61;100.00;58846.50;5027917;28;20152;-78
2022/10/06 06:39:11;;;;;;;4.00;1.15;;;;;;;-146.61;100.00;58846.50;5029099;28;20103;-76
2022/10/06 06:41:40;;;;;;;5.07;1.20;;;;;;;-146.61;100.00;58846.50;5029720;28;20041;-78
2022/10/06 06:44:09;;;;;;;8.25;1.40;;;;;;;-146.61;100.00;58846.50;5027259;28;20042;-76
2022/10/06 06:46:36;;;;;;;5.10;0.88;;;;;;;-146.61;100.00;58846.50;5029103;28;20664;-76
2022/10/06 06:49:04;;;;;;;6.65;0.85;;;;;;;-146.61;100.00;58846.50;5025418;28;20040;-77
2022/10/06 06:51:33;;;;;;;7.38;1.65;;;;;;;-146.61;100.00;58846.50;5027028;28;20049;-76
2022/10/06 06:54:01;;;;;;;8.52;1.30;;;;;;;-146.61;100.00;58846.50;5027817;28;20055;-79
2022/10/06 06:56:33;;;;;;;7.25;1.75;;;;;;;-146.61;100.00;58846.50;5029667;28;20362;-76
2022/10/06 06:59:01;;;;;;;11.63;1.70;;;;;;;-146.61;100.00;58846.50;5030813;28;20139;-80
2022/10/06 07:01:27;;;;;;;9.77;1.67;;;;;;;-146.61;100.00;58846.50;5030701;28;20495;-77
2022/10/06 07:03:58;;;;;;;10.98;2.80;;;;;;;-146.61;100.00;58846.50;5026992;28;20046;-77
2022/10/06 07:06:27;;;;;;;7.55;1.75;;;;;;;-146.61;100.00;58846.50;5028259;28;20920;-75
2022/10/06 07:08:54;;;;;;;7.47;1.23;;;;;;;-146.61;100.00;58846.50;5029294;28;20046;-80
2022/10/06 07:11:26;;;;;;;8.38;1.00;;;;;;;-146.61;100.00;58846.50;5029516;28;20104;-77
2022/10/06 07:13:56;;;;;;;8.68;1.98;;;;;;;-146.61;100.00;58846.50;5029107;28;20041;-76
2022/10/06 07:27:28;;;;;;;3.95;1.10;;;;;;;-146.61;100.00;58846.50;5025691;28;20104;-75
2022/10/06 07:29:55;;;;;;;10.30;1.70;;;;;;;-146.61;100.00;58846.50;5028437;28;20538;-76
2022/10/06 07:32:23;;;;;;;8.00;1.52;;;;;;;-146.61;100.00;58846.50;5027337;28;20056;-82
2022/10/06 07:34:50;;;;;;;8.90;2.20;;;;;;;-146.61;100.00;58846.50;5028274;28;20132;-76
2022/10/06 07:37:17;;;;;;;9.73;1.13;;;;;;;-146.61;100.00;58846.50;5027538;28;20048;-79
2022/10/06 07:39:45;;;;;;;8.57;1.48;;;;;;;-146.61;100.00;58846.50;5027360;28;20484;-77
2022/10/06 07:42:13;;;;;;;3.40;1.00;;;;;;;-146.61;100.00;58846.50;5027914;28;20037;-77
2022/10/06 07:44:44;;;;;;;7.05;1.05;;;;;;;-146.61;100.00;58846.50;5027265;28;20103;-76
2022/10/06 07:47:30;;;;;;;6.13;1.10;;;;;;;-146.61;100.00;58846.50;5028956;28;20038;-76
2022/10/06 07:49:57;;;;;;;9.60;2.03;;;;;;;-146.61;100.00;58846.50;5028651;28;20056;-75
2022/10/06 07:52:27;;;;;;;6.72;1.50;;;;;;;-146.61;100.00;58846.50;5028174;28;20088;-75
2022/10/06 07:54:57;;;;;;;4.63;1.35;;;;;;;-146.61;100.00;58846.50;5030453;28;20069;-77
2022/10/06 07:57:25;;;;;;;5.35;2.03;;;;;;;-146.61;100.00;58846.50;5030693;28;20041;-75
2022/10/06 07:59:52;;;;;;;5.25;1.30;;;;;;;-146.61;100.00;58846.50;5026815;28;20507;-77
2022/10/06 08:02:18;;;;;;;9.23;1.67;;;;;;;-146.61;100.00;58846.50;5030975;28;20449;-75
2022/10/06 08:04:45;;;;;;;15.25;2.10;;;;;;;-146.61;100.00;58846.50;5029266;28;20087;-75
2022/10/06 08:07:11;;;;;;;5.03;1.38;;;;;;;-146.61;100.00;58846.50;5029449;28;20407;-76
2022/10/06 08:09:37;;;;;;;14.30;2.05;;;;;;;-146.61;100.00;58846.50;5032530;28;20653;-76
2022/10/06 08:12:31;;;;;;;8.27;1.33;;;;;;;-146.61;100.00;58846.50;5032863;28;20048;-80
2022/10/06 08:14:51;;;;;;;9.15;2.33;;;;;;;-146.61;100.00;58846.50;5031692;28;20076;-75
2022/10/06 08:17:17;;;;;;;11.05;1.30;;;;;;;-146.61;100.00;58846.50;5031911;28;20369;-78
2022/10/06 08:19:43;;;;;;;4.78;1.77;;;;;;;-146.61;100.00;58846.50;5049108;28;20053;-76
2022/10/06 08:22:11;;;;;;;9.18;1.08;;;;;;;-146.61;100.00;58846.50;5029390;28;20059;-77
2022/10/06 08:24:37;;;;;;;9.52;1.55;;;;;;;-146.61;100.00;58846.50;5029895;28;20149;-75
2022/10/06 08:27:04;;;;;;;3.30;0.90;;;;;;;-146.61;100.00;58846.50;5027814;28;20072;-79
2022/10/06 08:29:30;;;;;;;5.93;1.27;;;;;;;-146.61;100.00;58846.50;5026311;28;20046;-75
2022/10/06 08:31:58;;;;;;;4.88;1.08;;;;;;;-146.61;100.00;58846.50;5027104;28;20039;-75
2022/10/06 08:34:24;;;;;;;5.63;1.40;;;;;;;-146.61;100.00;58846.50;5024874;28;20053;-76
2022/10/06 08:36:51;;;;;;;6.63;1.48;;;;;;;-146.61;100.00;58846.50;5027048;28;20129;-78
2022/10/06 08:39:17;;;;;;;6.20;1.10;;;;;;;-146.61;100.00;58846.50;5025057;28;20045;-78
2022/10/06 08:41:48;;;;;;;6.07;1.52;;;;;;;-146.61;100.00;58846.50;5025402;28;20488;-80
2022/10/06 08:44:17;;;;;;;5.15;1.30;;;;;;;-146.61;100.00;58846.50;5022206;28;20204;-83
2022/10/06 08:47:12;;;;;;;9.75;1.67;;;;;;;-146.61;100.00;58846.50;5023481;28;20045;-78
2022/10/06 08:49:51;;;;;;;3.45;1.38;;;;;;;-146.61;100.00;58846.50;5039666;28;20047;-77
2022/10/06 08:52:40;;;;;;;4.93;1.70;;;;;;;-146.61;100.00;58846.50;5019164;28;20445;-77
2022/10/06 08:55:26;;;;;;;5.15;1.48;;;;;;;-146.61;100.00;58846.50;5024377;28;20370;-76
2022/10/06 08:58:04;;;;;;;9.35;1.80;;;;;;;-146.61;100.00;58846.50;5026710;28;20373;-76
2022/10/06 09:00:32;;;;;;;6.55;0.95;;;;;;;-146.61;100.00;58846.50;5024426;28;20810;-76
2022/10/06 09:03:02;;;;;;;7.55;1.80;;;;;;;-146.61;100.00;58846.50;5028616;28;20030;-78
2022/10/06 09:05:30;;;;;;;8.05;1.00;;;;;;;-146.61;100.00;58846.50;5031426;28;20110;-79
2022/10/06 09:08:15;;;;;;;5.47;1.40;;;;;;;-146.61;100.00;58846.50;5027834;28;20091;-78
2022/10/06 09:11:03;;;;;;;10.88;1.80;;;;;;;-146.61;100.00;58846.50;5025613;28;20700;-77
2022/10/06 09:13:52;;;;;;;8.07;1.23;;;;;;;-146.61;100.00;58846.50;5026794;28;20037;-76
2022/10/06 09:16:27;;;;;;;6.70;1.88;;;;;;;-146.61;100.00;58846.50;5027870;28;20133;-75
2022/10/06 09:19:17;;;;;;;9.15;1.65;;;;;;;-146.61;100.00;58846.50;5026270;28;20057;-79
2022/10/06 09:21:49;;;;;;;4.53;1.38;;;;;;;-146.61;100.00;58846.50;5023890;28;20056;-76
2022/10/06 09:24:17;;;;;;;4.00;1.20;;;;;;;-146.61;100.00;58846.50;5020837;28;20112;-76
2022/10/06 09:26:46;;;;;;;6.65;1.00;;;;;;;-146.61;100.00;58846.50;5026522;28;20049;-77
2022/10/06 09:29:13;;;;;;;4.18;1.17;;;;;;;-146.61;100.00;58846.50;5026174;28;20417;-78
2022/10/06 09:31:42;;;;;;;4.63;1.23;;;;;;;-146.61;100.00;58846.50;5023482;28;20053;-79
2022/10/06 09:34:24;;;;;;;10.80;1.90;;;;;;;-146.61;100.00;58846.50;5024278;28;20571;-76
2022/10/06 09:37:09;;;;;;;8.35;1.40;;;;;;;-146.61;100.00;58846.50;5025939;28;20048;-78
2022/10/06 09:39:46;;;;;;;9.60;2.17;;;;;;;-146.61;100.00;58846.50;5025432;28;20124;-77
2022/10/06 09:42:19;;;;;;;7.35;1.70;;;;;;;-146.61;100.00;58846.50;5028000;28;20042;-75
2022/10/06 09:45:16;;;;;;;5.38;1.95;;;;;;;-146.61;100.00;58846.50;5028417;28;20068;-81
2022/10/06 09:47:44;;;;;;;4.90;1.08;;;;;;;-146.61;100.00;58846.50;5031499;28;20037;-76
2022/10/06 09:50:27;;;;;;;3.65;0.90;;;;;;;-146.61;100.00;58846.50;5030827;28;20068;-78
2022/10/06 09:53:00;;;;;;;2.90;1.50;;;;;;;-146.61;100.00;58846.50;5028749;28;20076;-77
2022/10/06 09:55:30;;;;;;;7.45;1.13;;;;;;;-146.61;100.00;58846.50;5026219;28;20109;-78
2022/10/06 09:57:57;;;;;;;2.50;1.00;;;;;;;-146.61;100.00;58846.50;5029237;28;20254;-81
2022/10/06 10:00:31;;;;;;;13.35;2.63;;;;;;;-146.61;100.00;58846.50;5031782;28;20045;-76
2022/10/06 10:03:04;;;;;;;5.60;1.13;;;;;;;-146.61;100.00;58846.50;5027411;28;20064;-76
2022/10/06 10:05:33;;;;;;;5.60;1.23;;;;;;;-146.61;100.00;58846.50;5028649;28;20397;-79
2022/10/06 10:08:17;;;;;;;6.68;1.27;;;;;;;-146.61;100.00;58846.50;5032217;28;20364;-78
2022/10/06 10:10:43;;;;;;;6.22;1.13;;;;;;;-146.61;100.00;58846.50;5031049;28;20040;-76
2022/10/06 10:13:25;;;;;;;3.60;1.13;;;;;;;-146.61;100.00;58846.50;5031058;28;20049;-76
2022/10/06 10:15:55;;;;;;;4.05;1.38;;;;;;;-146.61;100.00;58846.50;5033074;28;20045;-77
2022/10/06 10:18:25;;;;;;;6.22;1.30;;;;;;;-146.61;100.00;58846.50;5031610;28;20049;-77
2022/10/06 10:21:07;;;;;;;3.72;0.80;;;;;;;-146.61;100.00;58846.50;5031965;28;20037;-76
2022/10/06 10:23:38;;;;;;;4.72;1.42;;;;;;;-146.61;100.00;58846.50;5030966;28;20124;-75
2022/10/06 10:26:34;;;;;;;2.70;0.90;;;;;;;-146.61;100.00;58846.50;5030412;28;20099;-79
2022/10/06 10:29:31;;;;;;;5.63;1.65;;;;;;;-146.61;100.00;58846.50;5028445;28;20083;-76
2022/10/06 10:32:08;;;;;;;5.38;1.05;;;;;;;-146.61;100.00;58846.50;5027283;28;20041;-74
2022/10/06 10:34:47;;;;;;;7.18;1.20;;;;;;;-146.61;100.00;58846.50;5025239;28;20073;-78
2022/10/06 10:37:29;;;;;;;4.95;1.30;;;;;;;-146.61;100.00;58846.50;5029173;28;20484;-77
2022/10/06 10:39:58;;;;;;;7.57;1.65;;;;;;;-146.61;100.00;58846.50;5028473;28;20049;-79
2022/10/06 10:42:36;;;;;;;5.50;1.08;;;;;;;-146.61;100.00;58846.50;5027578;28;20052;-78
2022/10/06 10:45:07;;;;;;;7.70;1.75;;;;;;;-146.61;100.00;58846.50;5028861;28;20101;-78
2022/10/06 10:47:40;;;;;;;4.57;0.70;;;;;;;-146.61;100.00;58846.50;5028074;28;20400;-76
2022/10/06 10:50:19;;;;;;;7.75;1.25;;;;;;;-146.61;100.00;58846.50;5028486;28;21456;-76
2022/10/06 10:52:50;;;;;;;3.08;0.93;;;;;;;-146.61;100.00;58846.50;5025524;28;20053;-79
2022/10/06 10:55:44;;;;;;;3.25;1.02;;;;;;;-146.61;100.00;58846.50;5026718;28;20049;-80
2022/10/06 10:58:20;;;;;;;5.43;1.00;;;;;;;-146.61;100.00;58846.50;5027036;28;20770;-76
2022/10/06 11:00:53;;;;;;;5.90;1.05;;;;;;;-146.61;100.00;58846.50;5041543;28;20045;-77
2022/10/06 11:03:19;;;;;;;10.17;1.33;;;;;;;-146.61;100.00;58846.50;5028609;28;20044;-78
2022/10/06 11:06:02;;;;;;;6.05;1.05;;;;;;;-146.61;100.00;58846.50;5027472;28;20279;-77
2022/10/06 11:08:38;;;;;;;5.82;1.42;;;;;;;-146.61;100.00;58846.50;5026855;28;20064;-77
2022/10/06 11:11:15;;;;;;;5.85;1.00;;;;;;;-146.61;100.00;58846.50;5026367;28;20149;-77
2022/10/06 11:13:52;;;;;;;4.60;1.00;;;;;;;-146.61;100.00;58846.50;5021710;28;20878;-80
2022/10/06 11:16:57;;;;;;;4.13;1.08;;;;;;;-146.61;100.00;58846.50;5024062;28;20041;-77
2022/10/06 11:20:08;;;;;;;6.82;1.25;;;;;;;-146.61;100.00;58846.50;5025436;28;20041;-77
2022/10/06 11:22:46;;;;;;;5.60;1.15;;;;;;;-146.61;100.00;58846.50;4985712;28;20050;-76
2022/10/06 11:25:37;;;;;;;6.47;0.93;;;;;;;-146.61;100.00;58846.50;4984656;28;20098;-76
2022/10/06 11:28:18;;;;;;;3.70;1.33;;;;;;;-146.61;100.00;58846.50;4977122;28;1036077;-81
2022/10/06 11:31:03;;;;;;;5.32;1.52;;;;;;;-146.61;100.00;58846.50;5028961;28;20055;-79
2022/10/06 11:33:44;;;;;;;4.28;0.93;;;;;;;-146.61;100.00;58846.50;5028396;28;20041;-79
2022/10/06 11:36:19;;;;;;;5.65;0.95;;;;;;;-146.61;100.00;58846.50;5030907;28;20068;-78
2022/10/06 11:38:55;;;;;;;2.22;0.80;;;;;;;-146.61;100.00;58846.50;5028108;28;20068;-76
2022/10/06 11:41:24;;;;;;;4.80;1.02;;;;;;;-146.61;100.00;58846.50;5028677;28;20548;-81